sensor_id;sensor_type;location;lat;lon;timestamp;P1;durP1;ratioP1;P2;durP2;ratioP2
25249;SDS011;13201;51.148;13.738;2023-09-19T00:01:57;2.88;;;1.20;;
25249;SDS011;13201;51.148;13.738;2023-09-19T00:04:23;1.67;;;1.33;;
25249;SDS011;13201;51.148;13.738;2023-09-19T00:06:54;2.20;;;1.30;;
25249;SDS011;13201;51.148;13.738;2023-09-19T00:09:19;2.42;;;1.30;;
25249;SDS011;13201;51.148;13.738;2023-09-19T00:11:45;3.67;;;1.38;;
25249;SDS011;13201;51.148;13.738;2023-09-19T00:14:14;3.38;;;1.60;;
25249;SDS011;13201;51.148;13.738;2023-09-19T00:16:40;4.15;;;1.58;;
25249;SDS011;13201;51.148;13.738;2023-09-19T00:19:06;5.40;;;1.50;;
25249;SDS011;13201;51.148;13.738;2023-09-19T00:21:32;5.20;;;1.63;;
25249;SDS011;13201;51.148;13.738;2023-09-19T00:23:58;4.10;;;1.70;;
25249;SDS011;13201;51.148;13.738;2023-09-19T00:26:23;7.60;;;1.80;;
25249;SDS011;13201;51.148;13.738;2023-09-19T00:28:52;2.95;;;1.50;;
25249;SDS011;13201;51.148;13.738;2023-09-19T00:31:17;4.82;;;1.52;;
25249;SDS011;13201;51.148;13.738;2023-09-19T00:33:43;4.82;;;1.73;;
25249;SDS011;13201;51.148;13.738;2023-09-19T00:36:09;5.18;;;1.45;;
25249;SDS011;13201;51.148;13.738;2023-09-19T00:38:35;2.47;;;1.13;;
25249;SDS011;13201;51.148;13.738;2023-09-19T00:41:00;2.50;;;1.33;;
25249;SDS011;13201;51.148;13.738;2023-09-19T00:43:26;3.50;;;1.40;;
25249;SDS011;13201;51.148;13.738;2023-09-19T00:45:53;2.80;;;1.40;;
25249;SDS011;13201;51.148;13.738;2023-09-19T00:48:23;4.82;;;1.60;;
25249;SDS011;13201;51.148;13.738;2023-09-19T00:50:52;7.00;;;1.70;;
25249;SDS011;13201;51.148;13.738;2023-09-19T00:53:20;2.85;;;1.50;;
25249;SDS011;13201;51.148;13.738;2023-09-19T00:55:48;3.22;;;1.40;;
25249;SDS011;13201;51.148;13.738;2023-09-19T00:58:15;5.03;;;1.40;;
25249;SDS011;13201;51.148;13.738;2023-09-19T01:00:43;3.38;;;1.58;;
25249;SDS011;13201;51.148;13.738;2023-09-19T01:03:09;2.80;;;1.70;;
25249;SDS011;13201;51.148;13.738;2023-09-19T01:32:01;5.97;;;1.73;;
25249;SDS011;13201;51.148;13.738;2023-09-19T01:37:30;5.82;;;1.70;;
25249;SDS011;13201;51.148;13.738;2023-09-19T01:46:05;4.50;;;1.65;;
25249;SDS011;13201;51.148;13.738;2023-09-19T01:48:41;3.10;;;1.40;;
25249;SDS011;13201;51.148;13.738;2023-09-19T01:51:11;5.75;;;1.80;;
25249;SDS011;13201;51.148;13.738;2023-09-19T01:56:16;5.22;;;1.60;;
25249;SDS011;13201;51.148;13.738;2023-09-19T01:58:51;6.60;;;1.48;;
25249;SDS011;13201;51.148;13.738;2023-09-19T02:01:22;2.25;;;1.40;;
25249;SDS011;13201;51.148;13.738;2023-09-19T02:03:50;3.30;;;1.40;;
25249;SDS011;13201;51.148;13.738;2023-09-19T02:06:16;5.05;;;1.20;;
25249;SDS011;13201;51.148;13.738;2023-09-19T02:08:44;2.22;;;1.25;;
25249;SDS011;13201;51.148;13.738;2023-09-19T02:11:13;3.03;;;1.35;;
25249;SDS011;13201;51.148;13.738;2023-09-19T02:13:39;2.95;;;1.27;;
25249;SDS011;13201;51.148;13.738;2023-09-19T02:16:06;2.28;;;1.17;;
25249;SDS011;13201;51.148;13.738;2023-09-19T02:18:32;4.83;;;1.47;;
25249;SDS011;13201;51.148;13.738;2023-09-19T02:21:01;1.92;;;1.10;;
25249;SDS011;13201;51.148;13.738;2023-09-19T02:23:27;6.45;;;1.35;;
25249;SDS011;13201;51.148;13.738;2023-09-19T02:25:55;2.63;;;1.27;;
25249;SDS011;13201;51.148;13.738;2023-09-19T02:28:25;3.45;;;1.30;;
25249;SDS011;13201;51.148;13.738;2023-09-19T02:30:58;3.55;;;1.25;;
25249;SDS011;13201;51.148;13.738;2023-09-19T02:33:24;2.97;;;1.23;;
25249;SDS011;13201;51.148;13.738;2023-09-19T02:35:50;4.25;;;1.20;;
25249;SDS011;13201;51.148;13.738;2023-09-19T02:38:22;2.65;;;1.20;;
25249;SDS011;13201;51.148;13.738;2023-09-19T02:40:50;3.25;;;1.20;;
25249;SDS011;13201;51.148;13.738;2023-09-19T02:43:16;2.00;;;0.90;;
25249;SDS011;13201;51.148;13.738;2023-09-19T02:45:42;3.03;;;1.00;;
25249;SDS011;13201;51.148;13.738;2023-09-19T02:48:08;4.45;;;1.25;;
25249;SDS011;13201;51.148;13.738;2023-09-19T02:50:33;2.03;;;1.50;;
25249;SDS011;13201;51.148;13.738;2023-09-19T02:52:59;1.80;;;1.15;;
25249;SDS011;13201;51.148;13.738;2023-09-19T02:55:25;3.53;;;1.10;;
25249;SDS011;13201;51.148;13.738;2023-09-19T02:57:52;3.28;;;1.05;;
25249;SDS011;13201;51.148;13.738;2023-09-19T03:00:19;1.60;;;0.90;;
25249;SDS011;13201;51.148;13.738;2023-09-19T03:02:46;4.10;;;1.23;;
25249;SDS011;13201;51.148;13.738;2023-09-19T03:05:19;3.13;;;1.00;;
25249;SDS011;13201;51.148;13.738;2023-09-19T03:07:46;3.83;;;0.90;;
25249;SDS011;13201;51.148;13.738;2023-09-19T03:10:16;1.50;;;1.00;;
25249;SDS011;13201;51.148;13.738;2023-09-19T03:12:42;2.83;;;1.02;;
25249;SDS011;13201;51.148;13.738;2023-09-19T03:15:08;2.47;;;1.05;;
25249;SDS011;13201;51.148;13.738;2023-09-19T03:17:34;3.42;;;1.13;;
25249;SDS011;13201;51.148;13.738;2023-09-19T03:20:01;2.15;;;1.00;;
25249;SDS011;13201;51.148;13.738;2023-09-19T03:22:27;3.95;;;1.25;;
25249;SDS011;13201;51.148;13.738;2023-09-19T03:24:53;3.28;;;1.02;;
25249;SDS011;13201;51.148;13.738;2023-09-19T03:27:19;3.28;;;1.23;;
25249;SDS011;13201;51.148;13.738;2023-09-19T03:29:45;3.85;;;1.10;;
25249;SDS011;13201;51.148;13.738;2023-09-19T03:32:12;2.80;;;1.30;;
25249;SDS011;13201;51.148;13.738;2023-09-19T03:34:37;3.95;;;1.65;;
25249;SDS011;13201;51.148;13.738;2023-09-19T03:37:07;2.47;;;1.10;;
25249;SDS011;13201;51.148;13.738;2023-09-19T03:39:36;2.20;;;1.00;;
25249;SDS011;13201;51.148;13.738;2023-09-19T03:42:02;3.78;;;1.25;;
25249;SDS011;13201;51.148;13.738;2023-09-19T03:44:29;4.00;;;1.30;;
25249;SDS011;13201;51.148;13.738;2023-09-19T03:46:55;2.95;;;1.10;;
25249;SDS011;13201;51.148;13.738;2023-09-19T03:49:22;5.07;;;1.40;;
25249;SDS011;13201;51.148;13.738;2023-09-19T03:51:48;1.70;;;0.93;;
25249;SDS011;13201;51.148;13.738;2023-09-19T03:54:13;2.83;;;1.00;;
25249;SDS011;13201;51.148;13.738;2023-09-19T03:56:39;2.45;;;0.95;;
25249;SDS011;13201;51.148;13.738;2023-09-19T03:59:05;1.70;;;1.00;;
25249;SDS011;13201;51.148;13.738;2023-09-19T04:01:31;4.75;;;1.25;;
25249;SDS011;13201;51.148;13.738;2023-09-19T04:03:58;2.88;;;1.35;;
25249;SDS011;13201;51.148;13.738;2023-09-19T04:06:32;1.75;;;0.98;;
25249;SDS011;13201;51.148;13.738;2023-09-19T04:09:02;1.55;;;1.20;;
25249;SDS011;13201;51.148;13.738;2023-09-19T04:13:54;4.40;;;1.23;;
25249;SDS011;13201;51.148;13.738;2023-09-19T04:16:20;2.47;;;1.10;;
25249;SDS011;13201;51.148;13.738;2023-09-19T04:18:45;3.38;;;1.40;;
25249;SDS011;13201;51.148;13.738;2023-09-19T04:21:11;2.55;;;1.08;;
25249;SDS011;13201;51.148;13.738;2023-09-19T04:23:37;3.95;;;1.30;;
25249;SDS011;13201;51.148;13.738;2023-09-19T04:26:02;3.67;;;1.30;;
25249;SDS011;13201;51.148;13.738;2023-09-19T04:28:31;1.45;;;1.20;;
25249;SDS011;13201;51.148;13.738;2023-09-19T04:30:59;3.35;;;1.02;;
25249;SDS011;13201;51.148;13.738;2023-09-19T04:33:25;3.90;;;1.20;;
25249;SDS011;13201;51.148;13.738;2023-09-19T04:35:54;3.10;;;1.08;;
25249;SDS011;13201;51.148;13.738;2023-09-19T04:38:21;2.80;;;1.30;;
25249;SDS011;13201;51.148;13.738;2023-09-19T04:40:47;2.72;;;1.23;;
25249;SDS011;13201;51.148;13.738;2023-09-19T04:43:12;2.55;;;1.30;;
25249;SDS011;13201;51.148;13.738;2023-09-19T04:45:38;3.22;;;1.23;;
25249;SDS011;13201;51.148;13.738;2023-09-19T04:48:05;4.03;;;1.42;;
25249;SDS011;13201;51.148;13.738;2023-09-19T04:50:34;3.30;;;1.40;;
25249;SDS011;13201;51.148;13.738;2023-09-19T04:53:00;1.67;;;1.23;;
25249;SDS011;13201;51.148;13.738;2023-09-19T04:55:26;2.93;;;1.30;;
25249;SDS011;13201;51.148;13.738;2023-09-19T04:57:52;2.03;;;1.10;;
25249;SDS011;13201;51.148;13.738;2023-09-19T05:00:22;6.20;;;1.60;;
25249;SDS011;13201;51.148;13.738;2023-09-19T05:02:49;3.38;;;1.30;;
25249;SDS011;13201;51.148;13.738;2023-09-19T05:05:16;3.55;;;1.30;;
25249;SDS011;13201;51.148;13.738;2023-09-19T05:07:42;3.13;;;1.13;;
25249;SDS011;13201;51.148;13.738;2023-09-19T05:10:12;3.10;;;1.38;;
25249;SDS011;13201;51.148;13.738;2023-09-19T05:12:38;3.22;;;1.05;;
25249;SDS011;13201;51.148;13.738;2023-09-19T05:15:05;2.57;;;1.43;;
25249;SDS011;13201;51.148;13.738;2023-09-19T05:17:34;2.65;;;1.30;;
25249;SDS011;13201;51.148;13.738;2023-09-19T05:20:01;3.10;;;1.20;;
25249;SDS011;13201;51.148;13.738;2023-09-19T05:22:40;1.50;;;1.17;;
25249;SDS011;13201;51.148;13.738;2023-09-19T05:25:09;3.05;;;1.15;;
25249;SDS011;13201;51.148;13.738;2023-09-19T05:27:36;4.47;;;1.30;;
25249;SDS011;13201;51.148;13.738;2023-09-19T05:30:01;4.75;;;1.15;;
25249;SDS011;13201;51.148;13.738;2023-09-19T05:32:27;1.50;;;1.33;;
25249;SDS011;13201;51.148;13.738;2023-09-19T05:34:53;3.25;;;1.50;;
25249;SDS011;13201;51.148;13.738;2023-09-19T05:37:21;3.28;;;1.50;;
25249;SDS011;13201;51.148;13.738;2023-09-19T05:39:48;2.92;;;1.23;;
25249;SDS011;13201;51.148;13.738;2023-09-19T05:42:14;1.90;;;1.20;;
25249;SDS011;13201;51.148;13.738;2023-09-19T05:44:40;1.83;;;1.08;;
25249;SDS011;13201;51.148;13.738;2023-09-19T05:47:05;4.10;;;1.30;;
25249;SDS011;13201;51.148;13.738;2023-09-19T05:49:34;3.05;;;1.30;;
25249;SDS011;13201;51.148;13.738;2023-09-19T05:52:04;1.77;;;1.10;;
25249;SDS011;13201;51.148;13.738;2023-09-19T05:54:33;3.15;;;1.50;;
25249;SDS011;13201;51.148;13.738;2023-09-19T05:56:59;1.90;;;1.10;;
25249;SDS011;13201;51.148;13.738;2023-09-19T05:59:26;2.85;;;1.38;;
25249;SDS011;13201;51.148;13.738;2023-09-19T06:01:52;3.17;;;1.27;;
25249;SDS011;13201;51.148;13.738;2023-09-19T06:04:18;1.38;;;1.02;;
25249;SDS011;13201;51.148;13.738;2023-09-19T06:06:46;4.05;;;1.40;;
25249;SDS011;13201;51.148;13.738;2023-09-19T06:09:13;2.20;;;1.30;;
25249;SDS011;13201;51.148;13.738;2023-09-19T06:11:41;2.78;;;1.40;;
25249;SDS011;13201;51.148;13.738;2023-09-19T06:14:07;3.13;;;1.23;;
25249;SDS011;13201;51.148;13.738;2023-09-19T06:16:35;3.78;;;1.20;;
25249;SDS011;13201;51.148;13.738;2023-09-19T06:19:03;2.03;;;1.30;;
25249;SDS011;13201;51.148;13.738;2023-09-19T06:21:31;2.65;;;1.20;;
25249;SDS011;13201;51.148;13.738;2023-09-19T06:23:57;2.75;;;1.17;;
25249;SDS011;13201;51.148;13.738;2023-09-19T06:26:23;4.55;;;1.38;;
25249;SDS011;13201;51.148;13.738;2023-09-19T06:28:51;1.60;;;1.10;;
25249;SDS011;13201;51.148;13.738;2023-09-19T06:31:17;4.82;;;1.20;;
25249;SDS011;13201;51.148;13.738;2023-09-19T06:33:43;4.10;;;1.13;;
25249;SDS011;13201;51.148;13.738;2023-09-19T06:36:09;3.13;;;1.08;;
25249;SDS011;13201;51.148;13.738;2023-09-19T06:38:36;2.35;;;1.48;;
25249;SDS011;13201;51.148;13.738;2023-09-19T06:41:04;4.22;;;1.10;;
25249;SDS011;13201;51.148;13.738;2023-09-19T06:43:31;4.32;;;1.17;;
25249;SDS011;13201;51.148;13.738;2023-09-19T06:45:57;3.90;;;1.15;;
25249;SDS011;13201;51.148;13.738;2023-09-19T06:48:24;2.63;;;1.30;;
25249;SDS011;13201;51.148;13.738;2023-09-19T06:50:50;1.80;;;1.13;;
25249;SDS011;13201;51.148;13.738;2023-09-19T06:53:17;2.90;;;1.20;;
25249;SDS011;13201;51.148;13.738;2023-09-19T06:55:43;1.80;;;0.98;;
25249;SDS011;13201;51.148;13.738;2023-09-19T06:58:10;3.70;;;1.20;;
25249;SDS011;13201;51.148;13.738;2023-09-19T07:00:36;2.50;;;1.30;;
25249;SDS011;13201;51.148;13.738;2023-09-19T07:03:05;2.03;;;1.13;;
25249;SDS011;13201;51.148;13.738;2023-09-19T07:05:38;2.08;;;1.15;;
25249;SDS011;13201;51.148;13.738;2023-09-19T07:08:05;1.88;;;1.20;;
25249;SDS011;13201;51.148;13.738;2023-09-19T07:10:33;2.45;;;1.15;;
25249;SDS011;13201;51.148;13.738;2023-09-19T07:12:59;1.63;;;1.08;;
25249;SDS011;13201;51.148;13.738;2023-09-19T07:15:26;2.50;;;1.00;;
25249;SDS011;13201;51.148;13.738;2023-09-19T07:20:19;4.28;;;1.20;;
25249;SDS011;13201;51.148;13.738;2023-09-19T07:22:45;3.10;;;1.10;;
25249;SDS011;13201;51.148;13.738;2023-09-19T07:25:13;3.75;;;1.35;;
25249;SDS011;13201;51.148;13.738;2023-09-19T07:27:40;3.85;;;1.20;;
25249;SDS011;13201;51.148;13.738;2023-09-19T07:30:07;1.58;;;1.13;;
25249;SDS011;13201;51.148;13.738;2023-09-19T07:32:35;2.13;;;1.05;;
25249;SDS011;13201;51.148;13.738;2023-09-19T07:35:04;1.30;;;1.10;;
25249;SDS011;13201;51.148;13.738;2023-09-19T07:39:58;2.92;;;0.98;;
25249;SDS011;13201;51.148;13.738;2023-09-19T07:42:25;1.85;;;0.80;;
25249;SDS011;13201;51.148;13.738;2023-09-19T07:44:51;2.88;;;1.10;;
25249;SDS011;13201;51.148;13.738;2023-09-19T07:47:19;2.80;;;1.35;;
25249;SDS011;13201;51.148;13.738;2023-09-19T07:49:46;3.42;;;1.10;;
25249;SDS011;13201;51.148;13.738;2023-09-19T07:52:12;1.95;;;1.02;;
25249;SDS011;13201;51.148;13.738;2023-09-19T07:54:38;1.63;;;1.10;;
25249;SDS011;13201;51.148;13.738;2023-09-19T07:57:06;2.40;;;0.90;;
25249;SDS011;13201;51.148;13.738;2023-09-19T07:59:32;4.65;;;1.00;;
25249;SDS011;13201;51.148;13.738;2023-09-19T08:01:58;3.40;;;1.15;;
25249;SDS011;13201;51.148;13.738;2023-09-19T08:04:23;6.20;;;1.42;;
25249;SDS011;13201;51.148;13.738;2023-09-19T08:06:51;2.38;;;0.70;;
25249;SDS011;13201;51.148;13.738;2023-09-19T08:09:17;2.47;;;1.13;;
25249;SDS011;13201;51.148;13.738;2023-09-19T08:11:46;2.17;;;1.10;;
25249;SDS011;13201;51.148;13.738;2023-09-19T08:14:13;1.33;;;0.73;;
25249;SDS011;13201;51.148;13.738;2023-09-19T08:16:39;1.55;;;0.93;;
25249;SDS011;13201;51.148;13.738;2023-09-19T08:19:05;4.40;;;1.27;;
25249;SDS011;13201;51.148;13.738;2023-09-19T08:21:31;2.10;;;0.90;;
25249;SDS011;13201;51.148;13.738;2023-09-19T08:23:57;1.60;;;0.77;;
25249;SDS011;13201;51.148;13.738;2023-09-19T08:26:22;1.98;;;1.20;;
25249;SDS011;13201;51.148;13.738;2023-09-19T08:28:49;3.55;;;1.20;;
25249;SDS011;13201;51.148;13.738;2023-09-19T08:33:42;4.83;;;1.13;;
25249;SDS011;13201;51.148;13.738;2023-09-19T08:36:09;2.80;;;0.98;;
25249;SDS011;13201;51.148;13.738;2023-09-19T08:38:36;4.97;;;1.10;;
25249;SDS011;13201;51.148;13.738;2023-09-19T08:41:06;3.17;;;1.13;;
25249;SDS011;13201;51.148;13.738;2023-09-19T08:43:33;3.88;;;0.98;;
25249;SDS011;13201;51.148;13.738;2023-09-19T08:46:20;3.50;;;1.10;;
25249;SDS011;13201;51.148;13.738;2023-09-19T08:49:11;4.85;;;1.10;;
25249;SDS011;13201;51.148;13.738;2023-09-19T08:51:45;4.63;;;1.20;;
25249;SDS011;13201;51.148;13.738;2023-09-19T08:54:21;1.63;;;0.80;;
25249;SDS011;13201;51.148;13.738;2023-09-19T08:56:51;4.33;;;1.10;;
25249;SDS011;13201;51.148;13.738;2023-09-19T08:59:22;3.47;;;1.20;;
25249;SDS011;13201;51.148;13.738;2023-09-19T09:01:55;1.60;;;1.42;;
25249;SDS011;13201;51.148;13.738;2023-09-19T09:04:22;2.95;;;0.90;;
25249;SDS011;13201;51.148;13.738;2023-09-19T09:06:49;3.17;;;1.20;;
25249;SDS011;13201;51.148;13.738;2023-09-19T09:09:18;2.88;;;1.00;;
25249;SDS011;13201;51.148;13.738;2023-09-19T09:11:44;2.35;;;1.15;;
25249;SDS011;13201;51.148;13.738;2023-09-19T09:14:13;1.38;;;0.90;;
25249;SDS011;13201;51.148;13.738;2023-09-19T09:16:39;3.65;;;1.05;;
25249;SDS011;13201;51.148;13.738;2023-09-19T09:19:05;1.52;;;0.98;;
25249;SDS011;13201;51.148;13.738;2023-09-19T09:21:30;2.65;;;0.93;;
25249;SDS011;13201;51.148;13.738;2023-09-19T09:24:25;3.45;;;1.10;;
25249;SDS011;13201;51.148;13.738;2023-09-19T09:26:58;1.60;;;1.10;;
25249;SDS011;13201;51.148;13.738;2023-09-19T09:32:37;4.03;;;0.95;;
25249;SDS011;13201;51.148;13.738;2023-09-19T09:35:07;3.80;;;0.98;;
25249;SDS011;13201;51.148;13.738;2023-09-19T09:37:36;1.48;;;1.00;;
25249;SDS011;13201;51.148;13.738;2023-09-19T09:40:03;1.42;;;0.77;;
25249;SDS011;13201;51.148;13.738;2023-09-19T09:42:42;3.88;;;1.00;;
25249;SDS011;13201;51.148;13.738;2023-09-19T09:45:15;3.45;;;1.00;;
25249;SDS011;13201;51.148;13.738;2023-09-19T09:48:08;2.00;;;0.90;;
25249;SDS011;13201;51.148;13.738;2023-09-19T09:50:46;2.28;;;0.82;;
25249;SDS011;13201;51.148;13.738;2023-09-19T09:53:20;2.80;;;0.73;;
25249;SDS011;13201;51.148;13.738;2023-09-19T09:56:00;2.33;;;0.90;;
25249;SDS011;13201;51.148;13.738;2023-09-19T09:58:35;3.22;;;0.95;;
25249;SDS011;13201;51.148;13.738;2023-09-19T10:01:05;5.40;;;0.90;;
25249;SDS011;13201;51.148;13.738;2023-09-19T10:03:36;2.45;;;0.93;;
25249;SDS011;13201;51.148;13.738;2023-09-19T10:06:11;3.30;;;0.90;;
25249;SDS011;13201;51.148;13.738;2023-09-19T10:08:58;4.07;;;1.23;;
25249;SDS011;13201;51.148;13.738;2023-09-19T10:11:30;1.42;;;0.90;;
25249;SDS011;13201;51.148;13.738;2023-09-19T10:13:55;4.25;;;0.75;;
25249;SDS011;13201;51.148;13.738;2023-09-19T10:16:23;3.63;;;1.35;;
25249;SDS011;13201;51.148;13.738;2023-09-19T10:18:49;1.80;;;0.93;;
25249;SDS011;13201;51.148;13.738;2023-09-19T10:21:19;2.05;;;1.00;;
25249;SDS011;13201;51.148;13.738;2023-09-19T10:23:48;2.00;;;1.00;;
25249;SDS011;13201;51.148;13.738;2023-09-19T10:26:17;6.03;;;1.00;;
25249;SDS011;13201;51.148;13.738;2023-09-19T10:28:46;2.67;;;1.10;;
25249;SDS011;13201;51.148;13.738;2023-09-19T10:31:17;2.85;;;1.23;;
25249;SDS011;13201;51.148;13.738;2023-09-19T10:33:46;2.15;;;0.90;;
25249;SDS011;13201;51.148;13.738;2023-09-19T10:36:14;4.03;;;1.15;;
25249;SDS011;13201;51.148;13.738;2023-09-19T10:41:08;2.25;;;1.00;;
25249;SDS011;13201;51.148;13.738;2023-09-19T10:43:35;2.05;;;1.00;;
25249;SDS011;13201;51.148;13.738;2023-09-19T10:46:07;3.95;;;1.15;;
25249;SDS011;13201;51.148;13.738;2023-09-19T10:48:37;1.75;;;0.98;;
25249;SDS011;13201;51.148;13.738;2023-09-19T10:56:34;5.10;;;1.15;;
25249;SDS011;13201;51.148;13.738;2023-09-19T10:59:08;2.80;;;1.27;;
25249;SDS011;13201;51.148;13.738;2023-09-19T11:01:56;2.45;;;1.30;;
25249;SDS011;13201;51.148;13.738;2023-09-19T11:04:29;3.30;;;1.00;;
25249;SDS011;13201;51.148;13.738;2023-09-19T11:07:03;2.75;;;1.50;;
25249;SDS011;13201;51.148;13.738;2023-09-19T11:15:06;4.10;;;0.90;;
25249;SDS011;13201;51.148;13.738;2023-09-19T11:17:37;2.83;;;1.00;;
25249;SDS011;13201;51.148;13.738;2023-09-19T11:25:42;3.38;;;1.33;;
25249;SDS011;13201;51.148;13.738;2023-09-19T11:30:50;1.98;;;1.00;;
25249;SDS011;13201;51.148;13.738;2023-09-19T11:33:27;2.00;;;1.08;;
25249;SDS011;13201;51.148;13.738;2023-09-19T11:36:04;2.42;;;1.17;;
25249;SDS011;13201;51.148;13.738;2023-09-19T11:49:24;3.60;;;1.35;;
25249;SDS011;13201;51.148;13.738;2023-09-19T11:51:55;3.00;;;1.30;;
25249;SDS011;13201;51.148;13.738;2023-09-19T11:54:22;2.38;;;1.40;;
25249;SDS011;13201;51.148;13.738;2023-09-19T11:56:49;2.20;;;1.40;;
25249;SDS011;13201;51.148;13.738;2023-09-19T11:59:19;2.08;;;1.10;;
25249;SDS011;13201;51.148;13.738;2023-09-19T12:02:05;2.78;;;1.10;;
25249;SDS011;13201;51.148;13.738;2023-09-19T12:09:40;2.10;;;1.30;;
25249;SDS011;13201;51.148;13.738;2023-09-19T12:12:25;3.38;;;1.27;;
25249;SDS011;13201;51.148;13.738;2023-09-19T12:15:00;3.75;;;1.20;;
25249;SDS011;13201;51.148;13.738;2023-09-19T12:17:38;2.70;;;1.55;;
25249;SDS011;13201;51.148;13.738;2023-09-19T12:20:06;3.70;;;1.33;;
25249;SDS011;13201;51.148;13.738;2023-09-19T12:22:39;2.30;;;1.35;;
25249;SDS011;13201;51.148;13.738;2023-09-19T12:25:05;2.15;;;1.20;;
25249;SDS011;13201;51.148;13.738;2023-09-19T12:27:40;2.78;;;1.00;;
25249;SDS011;13201;51.148;13.738;2023-09-19T12:30:12;2.85;;;1.20;;
25249;SDS011;13201;51.148;13.738;2023-09-19T12:32:42;6.50;;;1.33;;
25249;SDS011;13201;51.148;13.738;2023-09-19T12:35:09;2.33;;;1.27;;
25249;SDS011;13201;51.148;13.738;2023-09-19T12:37:42;3.47;;;1.33;;
25249;SDS011;13201;51.148;13.738;2023-09-19T12:40:18;8.50;;;1.30;;
25249;SDS011;13201;51.148;13.738;2023-09-19T12:42:47;7.13;;;1.60;;
25249;SDS011;13201;51.148;13.738;2023-09-19T12:45:14;2.38;;;1.30;;
25249;SDS011;13201;51.148;13.738;2023-09-19T12:51:34;2.35;;;1.30;;
25249;SDS011;13201;51.148;13.738;2023-09-19T12:56:07;7.72;;;1.88;;
25249;SDS011;13201;51.148;13.738;2023-09-19T12:58:36;2.75;;;1.27;;
25249;SDS011;13201;51.148;13.738;2023-09-19T13:01:26;1.98;;;1.30;;
25249;SDS011;13201;51.148;13.738;2023-09-19T13:04:10;4.25;;;1.20;;
25249;SDS011;13201;51.148;13.738;2023-09-19T13:06:46;3.42;;;1.50;;
25249;SDS011;13201;51.148;13.738;2023-09-19T13:09:16;3.88;;;1.63;;
25249;SDS011;13201;51.148;13.738;2023-09-19T13:11:45;1.50;;;1.10;;
25249;SDS011;13201;51.148;13.738;2023-09-19T13:14:20;3.05;;;1.52;;
25249;SDS011;13201;51.148;13.738;2023-09-19T13:17:02;5.97;;;1.40;;
25249;SDS011;13201;51.148;13.738;2023-09-19T13:27:46;5.63;;;1.52;;
25249;SDS011;13201;51.148;13.738;2023-09-19T13:30:21;4.50;;;1.40;;
25249;SDS011;13201;51.148;13.738;2023-09-19T13:32:50;3.75;;;1.45;;
25249;SDS011;13201;51.148;13.738;2023-09-19T13:35:17;2.83;;;1.38;;
25249;SDS011;13201;51.148;13.738;2023-09-19T13:37:43;3.10;;;1.55;;
25249;SDS011;13201;51.148;13.738;2023-09-19T13:40:16;3.83;;;1.40;;
25249;SDS011;13201;51.148;13.738;2023-09-19T13:42:42;2.42;;;1.65;;
25249;SDS011;13201;51.148;13.738;2023-09-19T13:45:09;1.93;;;1.30;;
25249;SDS011;13201;51.148;13.738;2023-09-19T13:47:37;2.13;;;1.35;;
25249;SDS011;13201;51.148;13.738;2023-09-19T13:50:06;5.82;;;1.50;;
25249;SDS011;13201;51.148;13.738;2023-09-19T13:54:58;3.40;;;1.40;;
25249;SDS011;13201;51.148;13.738;2023-09-19T13:57:24;3.80;;;1.60;;
25249;SDS011;13201;51.148;13.738;2023-09-19T13:59:51;3.85;;;1.40;;
25249;SDS011;13201;51.148;13.738;2023-09-19T14:02:19;3.35;;;1.58;;
25249;SDS011;13201;51.148;13.738;2023-09-19T14:04:44;1.38;;;1.10;;
25249;SDS011;13201;51.148;13.738;2023-09-19T14:07:10;4.27;;;1.47;;
25249;SDS011;13201;51.148;13.738;2023-09-19T14:09:36;6.30;;;1.50;;
25249;SDS011;13201;51.148;13.738;2023-09-19T14:14:28;5.17;;;1.37;;
25249;SDS011;13201;51.148;13.738;2023-09-19T14:16:54;3.17;;;1.30;;
25249;SDS011;13201;51.148;13.738;2023-09-19T14:19:20;3.13;;;1.47;;
25249;SDS011;13201;51.148;13.738;2023-09-19T14:21:46;2.60;;;1.27;;
25249;SDS011;13201;51.148;13.738;2023-09-19T14:24:16;5.47;;;1.60;;
25249;SDS011;13201;51.148;13.738;2023-09-19T14:26:43;3.80;;;1.30;;
25249;SDS011;13201;51.148;13.738;2023-09-19T14:29:09;4.47;;;1.60;;
25249;SDS011;13201;51.148;13.738;2023-09-19T14:31:37;2.38;;;1.10;;
25249;SDS011;13201;51.148;13.738;2023-09-19T14:34:05;4.82;;;1.60;;
25249;SDS011;13201;51.148;13.738;2023-09-19T14:36:31;3.63;;;1.30;;
25249;SDS011;13201;51.148;13.738;2023-09-19T14:38:57;2.50;;;1.43;;
25249;SDS011;13201;51.148;13.738;2023-09-19T14:41:23;6.63;;;1.50;;
25249;SDS011;13201;51.148;13.738;2023-09-19T14:43:50;1.88;;;1.10;;
25249;SDS011;13201;51.148;13.738;2023-09-19T14:46:17;6.03;;;1.48;;
25249;SDS011;13201;51.148;13.738;2023-09-19T14:48:43;5.53;;;1.50;;
25249;SDS011;13201;51.148;13.738;2023-09-19T14:51:12;3.90;;;1.77;;
25249;SDS011;13201;51.148;13.738;2023-09-19T14:56:08;2.90;;;1.48;;
25249;SDS011;13201;51.148;13.738;2023-09-19T14:58:34;4.63;;;1.90;;
25249;SDS011;13201;51.148;13.738;2023-09-19T15:01:04;4.18;;;1.80;;
25249;SDS011;13201;51.148;13.738;2023-09-19T15:03:37;2.13;;;1.52;;
25249;SDS011;13201;51.148;13.738;2023-09-19T15:06:05;4.10;;;1.70;;
25249;SDS011;13201;51.148;13.738;2023-09-19T15:08:33;3.08;;;1.70;;
25249;SDS011;13201;51.148;13.738;2023-09-19T15:11:00;3.42;;;1.83;;
25249;SDS011;13201;51.148;13.738;2023-09-19T15:13:32;3.30;;;1.80;;
25249;SDS011;13201;51.148;13.738;2023-09-19T15:16:05;5.72;;;1.67;;
25249;SDS011;13201;51.148;13.738;2023-09-19T15:21:05;4.47;;;1.80;;
25249;SDS011;13201;51.148;13.738;2023-09-19T15:23:32;2.65;;;1.77;;
25249;SDS011;13201;51.148;13.738;2023-09-19T15:26:09;4.45;;;1.80;;
25249;SDS011;13201;51.148;13.738;2023-09-19T15:28:36;3.35;;;1.80;;
25249;SDS011;13201;51.148;13.738;2023-09-19T15:31:10;5.37;;;2.17;;
25249;SDS011;13201;51.148;13.738;2023-09-19T15:33:36;4.38;;;2.00;;
25249;SDS011;13201;51.148;13.738;2023-09-19T15:36:03;3.30;;;2.05;;
25249;SDS011;13201;51.148;13.738;2023-09-19T15:38:30;5.88;;;2.00;;
25249;SDS011;13201;51.148;13.738;2023-09-19T15:43:25;6.20;;;2.00;;
25249;SDS011;13201;51.148;13.738;2023-09-19T15:45:51;4.10;;;1.90;;
25249;SDS011;13201;51.148;13.738;2023-09-19T15:48:17;4.77;;;1.87;;
25249;SDS011;13201;51.148;13.738;2023-09-19T15:53:09;4.10;;;2.00;;
25249;SDS011;13201;51.148;13.738;2023-09-19T15:55:40;2.33;;;1.70;;
25249;SDS011;13201;51.148;13.738;2023-09-19T15:58:07;7.90;;;2.03;;
25249;SDS011;13201;51.148;13.738;2023-09-19T16:00:33;5.82;;;1.95;;
25249;SDS011;13201;51.148;13.738;2023-09-19T16:03:04;2.55;;;1.90;;
25249;SDS011;13201;51.148;13.738;2023-09-19T16:05:36;4.55;;;1.85;;
25249;SDS011;13201;51.148;13.738;2023-09-19T16:08:05;6.75;;;2.20;;
25249;SDS011;13201;51.148;13.738;2023-09-19T16:10:35;12.80;;;2.20;;
25249;SDS011;13201;51.148;13.738;2023-09-19T16:13:04;5.60;;;2.05;;
25249;SDS011;13201;51.148;13.738;2023-09-19T16:15:30;2.83;;;1.90;;
25249;SDS011;13201;51.148;13.738;2023-09-19T16:17:56;6.40;;;2.27;;
25249;SDS011;13201;51.148;13.738;2023-09-19T16:20:21;7.33;;;2.00;;
25249;SDS011;13201;51.148;13.738;2023-09-19T16:22:48;3.70;;;1.90;;
25249;SDS011;13201;51.148;13.738;2023-09-19T16:25:14;3.13;;;1.80;;
25249;SDS011;13201;51.148;13.738;2023-09-19T16:27:40;3.60;;;1.97;;
25249;SDS011;13201;51.148;13.738;2023-09-19T16:30:06;8.13;;;2.27;;
25249;SDS011;13201;51.148;13.738;2023-09-19T16:32:34;2.83;;;1.90;;
25249;SDS011;13201;51.148;13.738;2023-09-19T16:35:01;3.60;;;2.00;;
25249;SDS011;13201;51.148;13.738;2023-09-19T16:37:27;4.10;;;2.03;;
25249;SDS011;13201;51.148;13.738;2023-09-19T16:39:53;5.37;;;2.53;;